createdAt,value
2023-02-09T00:00:17.291Z,563.00
2023-02-09T00:01:17.316Z,569.00
2023-02-09T00:02:17.436Z,566.00
2023-02-09T00:04:17.466Z,566.00
2023-02-09T00:05:17.585Z,567.00
2023-02-09T00:06:17.567Z,565.00
2023-02-09T00:07:17.600Z,566.00
2023-02-09T00:08:17.662Z,569.00
2023-02-09T00:09:17.724Z,572.00
2023-02-09T00:10:17.788Z,572.00
2023-02-09T00:13:17.985Z,571.00
2023-02-09T00:14:20.273Z,572.00
2023-02-09T00:15:18.071Z,572.00
2023-02-09T00:16:18.189Z,570.00
2023-02-09T00:17:18.132Z,567.00
2023-02-09T04:03:25.182Z,606.00
2023-02-09T04:04:25.249Z,606.00
2023-02-09T04:05:25.313Z,605.00
2023-02-09T04:06:26.119Z,605.00
2023-02-09T04:07:25.381Z,603.00
2023-02-09T04:08:25.484Z,607.00
2023-02-09T04:09:25.432Z,607.00
2023-02-09T04:10:25.659Z,606.00
2023-02-09T04:11:25.623Z,609.00
2023-02-09T04:12:25.519Z,607.00
2023-02-09T04:13:25.551Z,600.00
2023-02-09T04:14:25.590Z,610.00
2023-02-09T04:15:25.669Z,612.00
2023-02-09T04:16:25.655Z,607.00
2023-02-09T04:17:25.657Z,599.00
2023-02-09T04:18:25.694Z,609.00
2023-02-09T04:19:25.734Z,610.00
2023-02-09T04:20:25.762Z,606.00
2023-02-09T04:21:26.132Z,609.00
2023-02-09T04:22:25.812Z,609.00
2023-02-09T04:23:25.837Z,608.00
2023-02-09T04:24:25.882Z,610.00
2023-02-09T04:25:25.905Z,612.00
2023-02-09T04:26:25.972Z,612.00
2023-02-09T04:27:25.991Z,609.00
2023-02-09T04:28:26.049Z,614.00
2023-02-09T04:29:26.136Z,612.00
2023-02-09T04:30:26.101Z,616.00
2023-02-09T04:31:26.316Z,615.00
2023-02-09T04:32:26.173Z,613.00
2023-02-09T04:33:26.230Z,612.00
2023-02-09T04:34:26.264Z,613.00
2023-02-09T04:35:26.393Z,613.00
2023-02-09T04:36:26.353Z,612.00
2023-02-09T04:37:26.389Z,607.00
2023-02-09T04:38:26.419Z,614.00
2023-02-09T04:39:26.445Z,613.00
2023-02-09T04:40:26.523Z,615.00
2023-02-09T04:41:26.521Z,615.00
2023-02-09T04:42:26.556Z,616.00
2023-02-09T04:43:26.614Z,611.00
2023-02-09T04:44:26.621Z,614.00
2023-02-09T04:45:26.763Z,611.00
2023-02-09T04:46:26.667Z,612.00
2023-02-09T04:47:26.697Z,613.00
2023-02-09T04:48:26.724Z,609.00
2023-02-09T04:49:26.757Z,608.00
2023-02-09T04:50:26.790Z,613.00
2023-02-09T04:51:26.805Z,609.00
2023-02-09T04:52:26.854Z,612.00
2023-02-09T04:53:26.900Z,616.00
2023-02-09T04:54:26.967Z,612.00
2023-02-09T04:55:26.999Z,612.00
2023-02-09T04:56:27.006Z,615.00
2023-02-09T04:57:27.038Z,617.00
2023-02-09T04:58:27.088Z,618.00
2023-02-09T04:59:27.093Z,615.00
2023-02-09T05:00:27.127Z,610.00
2023-02-09T05:01:27.229Z,614.00
2023-02-09T05:02:27.253Z,612.00
2023-02-09T05:03:27.299Z,614.00
2023-02-09T05:04:27.277Z,620.00
2023-02-09T05:05:27.311Z,617.00
2023-02-09T05:06:27.338Z,617.00
2023-02-09T05:07:27.373Z,616.00
2023-02-09T05:08:27.402Z,620.00
2023-02-09T05:09:27.430Z,618.00
2023-02-09T05:10:27.456Z,620.00
2023-02-09T05:11:27.488Z,620.00
2023-02-09T05:12:28.150Z,620.00
2023-02-09T05:26:28.191Z,619.00
2023-02-09T05:27:28.222Z,621.00
2023-02-09T05:28:28.288Z,616.00
2023-02-09T05:29:28.279Z,618.00
2023-02-09T05:30:28.287Z,619.00
2023-02-09T05:31:28.500Z,622.00
2023-02-09T05:32:28.407Z,620.00
2023-02-09T05:33:28.475Z,621.00
2023-02-09T05:34:29.164Z,621.00
2023-02-09T05:35:28.534Z,621.00
2023-02-09T05:36:28.618Z,623.00
2023-02-09T05:37:28.668Z,622.00
2023-02-09T05:38:28.707Z,622.00
2023-02-09T05:39:29.652Z,622.00
2023-02-09T05:40:28.878Z,621.00
2023-02-09T05:41:28.851Z,625.00
2023-02-09T05:42:28.888Z,626.00
2023-02-09T05:43:28.930Z,622.00
2023-02-09T05:44:28.954Z,622.00
2023-02-09T05:45:29.003Z,627.00
2023-02-09T05:46:29.077Z,627.00
2023-02-09T05:47:29.069Z,624.00
2023-02-09T05:48:29.093Z,624.00
2023-02-09T05:49:29.119Z,626.00
2023-02-09T05:50:29.145Z,627.00
2023-02-09T05:51:29.199Z,625.00
2023-02-09T05:52:29.224Z,624.00
2023-02-09T05:53:29.244Z,626.00
2023-02-09T05:54:29.376Z,633.00
2023-02-09T05:55:29.372Z,630.00
2023-02-09T05:56:29.390Z,631.00
2023-02-09T05:57:29.420Z,631.00
2023-02-09T05:58:29.443Z,627.00
2023-02-09T05:59:29.485Z,627.00
2023-02-09T06:00:29.509Z,627.00
2023-02-09T06:01:29.538Z,630.00
2023-02-09T06:02:29.599Z,627.00
2023-02-09T06:03:29.676Z,630.00
2023-02-09T06:04:29.629Z,627.00
2023-02-09T06:05:30.227Z,632.00
2023-02-09T06:06:29.677Z,632.00
2023-02-09T06:07:29.706Z,628.00
2023-02-09T06:08:29.736Z,625.00
2023-02-09T06:09:29.768Z,630.00
2023-02-09T06:10:29.801Z,628.00
2023-02-09T06:11:29.866Z,626.00
2023-02-09T06:12:29.860Z,632.00
2023-02-09T06:13:30.591Z,627.00
2023-02-09T06:14:29.932Z,635.00
2023-02-09T06:15:29.995Z,629.00
2023-02-09T06:16:30.027Z,629.00
2023-02-09T06:17:30.065Z,631.00
2023-02-09T06:18:30.098Z,628.00
2023-02-09T06:19:30.127Z,633.00
2023-02-09T06:20:30.169Z,636.00
2023-02-09T06:21:30.186Z,629.00
2023-02-09T06:22:30.226Z,623.00
2023-02-09T06:23:30.268Z,501.00
2023-02-09T06:24:30.394Z,419.00
2023-02-09T06:25:30.438Z,523.00
2023-02-09T06:26:30.531Z,513.00
2023-02-09T06:27:30.718Z,518.00
2023-02-09T06:28:30.844Z,522.00
2023-02-09T06:29:30.879Z,499.00
2023-02-09T06:30:32.820Z,510.00
2023-02-09T06:31:31.290Z,499.00
2023-02-09T06:32:31.680Z,495.00
2023-02-09T06:33:31.374Z,503.00
2023-02-09T06:34:31.513Z,505.00
2023-02-09T06:35:31.617Z,539.00
2023-02-09T06:36:31.704Z,536.00
2023-02-09T06:37:31.834Z,552.00
2023-02-09T06:38:31.960Z,554.00
2023-02-09T06:39:32.110Z,569.00
2023-02-09T06:40:32.130Z,581.00
2023-02-09T06:41:32.219Z,597.00
2023-02-09T06:43:32.361Z,608.00
2023-02-09T06:44:33.392Z,608.00
2023-02-09T06:46:32.501Z,622.00
2023-02-09T06:47:32.502Z,630.00
2023-02-09T06:48:32.525Z,648.00
2023-02-09T07:44:36.693Z,1480.00
2023-02-09T08:52:32.814Z,1557.00
2023-02-09T11:39:33.149Z,986.00
2023-02-09T11:40:33.150Z,1002.00
2023-02-09T11:41:33.136Z,987.00
2023-02-09T11:42:33.140Z,979.00
2023-02-09T11:43:33.128Z,980.00
2023-02-09T11:44:33.130Z,984.00
2023-02-09T11:45:33.127Z,975.00
2023-02-09T11:46:33.155Z,976.00
2023-02-09T11:47:33.135Z,973.00
2023-02-09T11:48:33.127Z,995.00
2023-02-09T11:49:33.112Z,968.00
2023-02-09T11:50:33.132Z,974.00
2023-02-09T11:51:33.197Z,980.00
2023-02-09T11:52:33.309Z,981.00
2023-02-09T11:53:33.278Z,978.00
2023-02-09T11:54:33.286Z,971.00
2023-02-09T11:55:33.283Z,971.00
2023-02-09T11:56:33.318Z,972.00
2023-02-09T11:57:33.327Z,968.00
2023-02-09T11:58:33.317Z,960.00
2023-02-09T11:59:33.333Z,972.00
2023-02-09T12:00:33.980Z,960.00
2023-02-09T12:01:33.339Z,961.00
2023-02-09T12:02:33.364Z,961.00
2023-02-09T12:03:33.328Z,962.00
2023-02-09T12:04:33.316Z,961.00
2023-02-09T12:05:33.311Z,952.00
2023-02-09T12:06:33.333Z,969.00
2023-02-09T12:07:33.429Z,948.00
2023-02-09T12:08:33.316Z,950.00
2023-02-09T12:09:33.308Z,946.00
2023-02-09T12:10:33.309Z,947.00
2023-02-09T12:11:33.313Z,951.00
2023-02-09T12:12:33.315Z,945.00
2023-02-09T12:13:33.299Z,943.00
2023-02-09T12:14:33.306Z,956.00
2023-02-09T12:15:34.423Z,934.00
2023-02-09T12:16:33.388Z,951.00
2023-02-09T12:17:33.375Z,953.00
2023-02-09T12:18:33.393Z,953.00
2023-02-09T12:19:33.319Z,931.00
2023-02-09T12:20:33.322Z,948.00
2023-02-09T12:21:33.326Z,929.00
2023-02-09T12:22:35.314Z,942.00
2023-02-09T12:23:33.341Z,943.00
2023-02-09T12:24:33.420Z,939.00
2023-02-09T12:25:33.394Z,924.00
2023-02-09T12:28:33.834Z,931.00
2023-02-09T12:30:33.385Z,942.00
2023-02-09T12:31:33.417Z,939.00
2023-02-09T12:32:33.378Z,942.00
2023-02-09T12:33:33.384Z,925.00
2023-02-09T12:34:33.373Z,937.00
2023-02-09T12:35:33.383Z,932.00
2023-02-09T12:36:33.390Z,934.00
2023-02-09T12:38:33.387Z,933.00
2023-02-09T12:39:33.396Z,931.00
2023-02-09T12:40:33.399Z,932.00
2023-02-09T12:41:33.410Z,933.00
2023-02-09T12:42:33.420Z,929.00
2023-02-09T12:43:33.422Z,919.00
2023-02-09T12:44:33.433Z,929.00
2023-02-09T12:45:33.728Z,921.00
2023-02-09T12:46:33.508Z,920.00
2023-02-09T12:47:33.445Z,926.00
2023-02-09T12:48:33.456Z,916.00
2023-02-09T12:49:33.473Z,936.00
2023-02-09T12:50:33.469Z,909.00
2023-02-09T12:51:33.512Z,922.00
2023-02-09T12:52:33.604Z,922.00
2023-02-09T12:53:33.574Z,920.00
2023-02-09T12:54:33.619Z,906.00
2023-02-09T12:55:33.652Z,910.00
2023-02-09T12:56:33.677Z,900.00
2023-02-09T12:57:33.695Z,921.00
2023-02-09T12:58:33.734Z,908.00
2023-02-09T12:59:33.771Z,903.00
2023-02-09T13:00:33.795Z,905.00
2023-02-09T13:01:33.847Z,914.00
2023-02-09T13:02:33.853Z,909.00
2023-02-09T13:03:33.917Z,916.00
2023-02-09T13:04:33.903Z,899.00
2023-02-09T13:05:33.916Z,921.00
2023-02-09T13:06:33.947Z,907.00
2023-02-09T13:07:34.052Z,911.00
2023-02-09T13:08:33.976Z,914.00
2023-02-09T13:09:34.003Z,928.00
2023-02-09T13:10:34.034Z,905.00
2023-02-09T13:11:34.039Z,908.00
2023-02-09T13:12:34.059Z,913.00
2023-02-09T13:13:34.105Z,893.00
2023-02-09T13:14:34.107Z,913.00
2023-02-09T13:15:34.130Z,911.00
2023-02-09T13:16:35.268Z,893.00
2023-02-09T13:17:34.161Z,925.00
2023-02-09T13:18:34.173Z,905.00
2023-02-09T13:19:47.134Z,908.00
2023-02-09T13:20:35.185Z,909.00
2023-02-09T13:21:34.259Z,908.00
2023-02-09T13:22:34.172Z,911.00
2023-02-09T13:23:34.170Z,907.00
2023-02-09T13:24:34.152Z,915.00
2023-02-09T13:25:34.134Z,895.00
2023-02-09T13:26:34.153Z,914.00
2023-02-09T13:27:34.128Z,909.00
2023-02-09T13:28:34.177Z,904.00
2023-02-09T13:29:34.168Z,889.00
2023-02-09T13:30:34.121Z,906.00
2023-02-09T13:31:34.177Z,908.00
2023-02-09T13:32:34.841Z,902.00
2023-02-09T13:33:34.105Z,902.00
2023-02-09T13:34:34.091Z,898.00
2023-02-09T13:35:34.117Z,900.00
2023-02-09T13:36:34.091Z,899.00
2023-02-09T13:37:34.099Z,891.00
2023-02-09T13:38:34.098Z,889.00
2023-02-09T13:39:34.201Z,904.00
2023-02-09T13:40:34.097Z,900.00
2023-02-09T13:41:34.159Z,895.00
2023-02-09T13:42:34.067Z,902.00
2023-02-09T13:43:34.064Z,886.00
2023-02-09T13:44:34.844Z,893.00
2023-02-09T13:45:34.115Z,882.00
2023-02-09T13:46:34.077Z,875.00
2023-02-09T13:47:34.093Z,894.00
2023-02-09T13:48:34.827Z,880.00
2023-02-09T13:49:34.130Z,898.00
2023-02-09T13:50:34.150Z,897.00
2023-02-09T13:51:34.214Z,873.00
2023-02-09T13:52:36.296Z,890.00
2023-02-09T13:53:34.186Z,886.00
2023-02-09T13:54:34.193Z,901.00
2023-02-09T13:55:34.183Z,880.00
2023-02-09T13:56:34.813Z,883.00
2023-02-09T13:57:34.291Z,897.00
2023-02-09T13:58:34.918Z,881.00
2023-02-09T13:59:34.158Z,883.00
2023-02-09T14:00:34.152Z,884.00
2023-02-09T14:01:34.212Z,889.00
2023-02-09T14:02:34.250Z,895.00
2023-02-09T14:03:34.135Z,859.00
2023-02-09T14:04:34.134Z,873.00
2023-02-09T14:05:34.133Z,877.00
2023-02-09T14:06:34.134Z,895.00
2023-02-09T14:07:34.118Z,881.00
2023-02-09T14:08:34.109Z,887.00
2023-02-09T14:09:34.123Z,866.00
2023-02-09T14:10:34.109Z,874.00
2023-02-09T14:11:42.451Z,882.00
2023-02-09T14:12:35.143Z,883.00
2023-02-09T14:13:34.126Z,883.00
2023-02-09T14:14:34.160Z,883.00
2023-02-09T14:15:34.090Z,884.00
2023-02-09T14:16:44.675Z,880.00
2023-02-09T14:17:35.121Z,883.00
2023-02-09T14:18:34.086Z,883.00
2023-02-09T14:19:34.082Z,878.00
2023-02-09T14:20:34.068Z,872.00
2023-02-09T14:21:34.062Z,886.00
2023-02-09T14:22:34.059Z,881.00
2023-02-09T14:23:34.067Z,866.00
2023-02-09T14:24:34.062Z,872.00
2023-02-09T14:25:34.045Z,880.00
2023-02-09T14:26:34.034Z,879.00
2023-02-09T14:27:34.033Z,873.00
2023-02-09T14:28:34.213Z,872.00
2023-02-09T14:29:34.028Z,868.00
2023-02-09T14:30:34.051Z,884.00
2023-02-09T14:31:34.065Z,880.00
2023-02-09T14:32:34.017Z,875.00
2023-02-09T14:33:34.001Z,879.00
2023-02-09T14:34:34.007Z,876.00
2023-02-09T14:35:34.004Z,880.00
2023-02-09T14:36:34.024Z,872.00
2023-02-09T14:37:34.002Z,881.00
2023-02-09T14:38:34.048Z,868.00
2023-02-09T14:39:34.002Z,860.00
2023-02-09T14:40:34.017Z,857.00
2023-02-09T14:41:33.985Z,861.00
2023-02-09T14:42:33.989Z,854.00
2023-02-09T14:43:33.981Z,866.00
2023-02-09T14:44:33.979Z,855.00
2023-02-09T14:45:34.331Z,871.00
2023-02-09T14:46:34.075Z,853.00
2023-02-09T14:47:34.061Z,871.00
2023-02-09T14:48:34.065Z,860.00
2023-02-09T14:49:34.087Z,865.00
2023-02-09T14:50:34.109Z,845.00
2023-02-09T14:51:34.126Z,858.00
2023-02-09T14:52:34.180Z,846.00
2023-02-09T14:53:34.165Z,862.00
2023-02-09T14:54:34.174Z,863.00
2023-02-09T14:55:34.194Z,855.00
2023-02-09T14:56:34.271Z,839.00
2023-02-09T14:57:34.219Z,859.00
2023-02-09T14:58:34.246Z,843.00
2023-02-09T14:59:34.261Z,839.00
2023-02-09T15:00:34.289Z,850.00
2023-02-09T15:01:34.380Z,869.00
2023-02-09T15:02:34.926Z,841.00
2023-02-09T15:03:34.383Z,854.00
2023-02-09T15:04:34.359Z,851.00
2023-02-09T15:05:34.386Z,839.00
2023-02-09T15:06:34.400Z,870.00
2023-02-09T15:07:34.432Z,839.00
2023-02-09T15:08:34.454Z,832.00
2023-02-09T15:09:34.539Z,861.00
2023-02-09T15:10:34.492Z,842.00
2023-02-09T15:11:34.514Z,846.00
2023-02-09T15:12:34.531Z,843.00
2023-02-09T15:13:34.558Z,854.00
2023-02-09T15:14:34.575Z,842.00
2023-02-09T15:15:34.613Z,838.00
2023-02-09T15:16:34.637Z,850.00
2023-02-09T15:17:34.664Z,850.00
2023-02-09T15:18:34.670Z,857.00
2023-02-09T15:19:34.688Z,844.00
2023-02-09T15:20:34.704Z,842.00
2023-02-09T15:21:34.727Z,826.00
2023-02-09T15:22:35.365Z,841.00
2023-02-09T15:23:34.749Z,837.00
2023-02-09T15:24:35.349Z,835.00
2023-02-09T15:25:34.783Z,845.00
2023-02-09T15:26:34.826Z,827.00
2023-02-09T15:27:34.832Z,874.00
2023-02-09T15:28:35.932Z,865.00
2023-02-09T15:29:34.894Z,860.00
2023-02-09T15:30:34.917Z,848.00
2023-02-09T15:31:34.981Z,830.00
2023-02-09T15:32:34.955Z,824.00
2023-02-09T15:33:34.979Z,837.00
2023-02-09T15:34:34.993Z,852.00
2023-02-09T15:35:35.035Z,849.00
2023-02-09T15:36:35.052Z,829.00
2023-02-09T15:37:35.070Z,845.00
2023-02-09T15:38:35.095Z,826.00
2023-02-09T15:39:35.118Z,840.00
2023-02-09T15:40:35.139Z,841.00
2023-02-09T15:41:36.359Z,831.00
2023-02-09T15:42:35.187Z,828.00
2023-02-09T15:43:35.237Z,839.00
2023-02-09T15:44:35.237Z,842.00
2023-02-09T15:45:35.255Z,850.00
2023-02-09T15:46:36.296Z,828.00
2023-02-09T15:47:35.305Z,840.00
2023-02-09T15:48:35.338Z,835.00
2023-02-09T15:49:35.368Z,824.00
2023-02-09T15:50:35.383Z,825.00
2023-02-09T15:51:35.419Z,818.00
2023-02-09T15:52:35.456Z,828.00
2023-02-09T15:53:35.496Z,826.00
2023-02-09T15:54:35.529Z,850.00
2023-02-09T15:55:35.523Z,848.00
2023-02-09T15:56:35.568Z,849.00
2023-02-09T15:57:35.606Z,841.00
2023-02-09T15:58:35.824Z,829.00
2023-02-09T15:59:35.669Z,831.00
2023-02-09T16:00:35.679Z,832.00
2023-02-09T16:01:35.762Z,850.00
2023-02-09T16:02:35.835Z,840.00
2023-02-09T16:03:35.785Z,840.00
2023-02-09T16:04:35.816Z,830.00
2023-02-09T16:05:35.849Z,834.00
2023-02-09T16:06:35.890Z,823.00
2023-02-09T16:07:35.915Z,828.00
2023-02-09T16:08:35.937Z,841.00
2023-02-09T16:09:35.974Z,844.00
2023-02-09T16:10:36.044Z,831.00
2023-02-09T16:11:36.081Z,833.00
2023-02-09T16:12:36.093Z,824.00
2023-02-09T16:13:36.114Z,830.00
2023-02-09T16:14:36.137Z,835.00
2023-02-09T16:15:36.176Z,827.00
2023-02-09T16:16:36.226Z,821.00
2023-02-09T16:17:36.270Z,832.00
2023-02-09T16:18:36.277Z,822.00
2023-02-09T16:19:36.330Z,829.00
2023-02-09T16:20:36.413Z,817.00
2023-02-09T16:21:36.472Z,823.00
2023-02-09T16:22:36.442Z,824.00
2023-02-09T16:23:36.463Z,822.00
2023-02-09T16:24:36.472Z,832.00
2023-02-09T16:25:36.876Z,828.00
2023-02-09T16:26:36.547Z,814.00
2023-02-09T16:27:36.595Z,828.00
2023-02-09T16:28:36.715Z,832.00
2023-02-09T16:29:36.674Z,828.00
2023-02-09T16:30:36.704Z,819.00
2023-02-09T16:31:36.792Z,821.00
2023-02-09T16:32:36.756Z,820.00
2023-02-09T16:33:36.811Z,817.00
2023-02-09T16:34:37.375Z,822.00
2023-02-09T16:35:36.871Z,822.00
2023-02-09T16:36:36.923Z,828.00
2023-02-09T16:37:36.961Z,808.00
2023-02-09T16:38:36.985Z,811.00
2023-02-09T16:39:37.029Z,809.00
2023-02-09T16:40:37.073Z,812.00
2023-02-09T16:41:37.112Z,810.00
2023-02-09T16:42:37.143Z,801.00
2023-02-09T16:43:37.201Z,794.00
2023-02-09T16:44:37.217Z,807.00
2023-02-09T16:45:37.385Z,809.00
2023-02-09T16:46:37.412Z,800.00
2023-02-09T16:47:37.337Z,793.00
2023-02-09T16:48:37.368Z,803.00
2023-02-09T16:49:37.427Z,804.00
2023-02-09T16:50:37.452Z,801.00
2023-02-09T16:51:37.488Z,805.00
2023-02-09T16:52:37.524Z,811.00
2023-02-09T16:53:37.550Z,800.00
2023-02-09T16:54:37.593Z,804.00
2023-02-09T16:55:37.644Z,786.00
2023-02-09T16:56:52.648Z,782.00
2023-02-09T16:58:37.702Z,785.00
2023-02-09T16:59:37.702Z,790.00
2023-02-09T17:00:37.809Z,791.00
2023-02-09T17:01:37.777Z,793.00
2023-02-09T17:02:37.753Z,789.00
2023-02-09T17:03:37.735Z,791.00
2023-02-09T17:04:37.758Z,797.00
2023-02-09T17:05:37.752Z,798.00
2023-02-09T17:06:37.743Z,785.00
2023-02-09T17:07:52.511Z,783.00
2023-02-09T17:09:37.772Z,787.00
2023-02-09T17:10:37.762Z,786.00
2023-02-09T17:11:37.780Z,788.00
2023-02-09T17:12:37.790Z,793.00
2023-02-09T17:13:37.787Z,785.00
2023-02-09T17:14:37.822Z,800.00
2023-02-09T17:15:37.832Z,787.00
2023-02-09T17:16:37.869Z,794.00
2023-02-09T17:17:37.828Z,785.00
2023-02-09T17:18:37.830Z,790.00
2023-02-09T17:19:47.442Z,777.00
2023-02-09T17:21:37.869Z,779.00
2023-02-09T17:22:37.878Z,779.00
2023-02-09T17:23:37.891Z,777.00
2023-02-09T17:24:37.905Z,780.00
2023-02-09T17:25:37.901Z,788.00
2023-02-09T17:26:37.914Z,787.00
2023-02-09T17:27:37.930Z,785.00
2023-02-09T17:28:37.963Z,783.00
2023-02-09T17:29:37.953Z,772.00
2023-02-09T17:30:37.954Z,777.00
2023-02-09T17:31:51.866Z,767.00
2023-02-09T17:33:37.974Z,770.00
2023-02-09T17:34:38.064Z,771.00
2023-02-09T17:36:10.047Z,783.00
2023-02-09T17:37:38.081Z,771.00
2023-02-09T17:38:38.017Z,773.00
2023-02-09T17:39:38.017Z,777.00
2023-02-09T17:40:38.061Z,775.00
2023-02-09T17:41:38.027Z,780.00
2023-02-09T17:42:38.028Z,767.00
2023-02-09T17:45:38.158Z,778.00
2023-02-09T21:12:45.962Z,669.00
2023-02-09T21:15:45.170Z,664.00
2023-02-09T21:16:45.238Z,672.00
2023-02-09T21:17:45.245Z,665.00
2023-02-09T21:18:45.287Z,665.00
2023-02-09T21:19:45.399Z,668.00
2023-02-09T21:20:45.366Z,669.00
2023-02-09T21:21:45.389Z,665.00
2023-02-09T21:22:45.418Z,666.00
2023-02-09T21:23:45.474Z,662.00
2023-02-09T21:24:45.510Z,666.00
2023-02-09T21:25:46.460Z,665.00
2023-02-09T21:26:45.577Z,664.00
2023-02-09T21:27:45.627Z,666.00
2023-02-09T21:28:45.705Z,669.00
2023-02-09T21:29:45.693Z,667.00
2023-02-09T21:30:46.112Z,669.00
2023-02-09T21:31:45.808Z,670.00
2023-02-09T21:32:45.788Z,666.00
2023-02-09T21:33:45.829Z,669.00
2023-02-09T21:34:45.876Z,664.00
2023-02-09T21:35:45.893Z,665.00
2023-02-09T21:36:45.935Z,664.00
2023-02-09T21:44:46.223Z,666.00
2023-02-09T21:45:46.279Z,665.00
2023-02-09T21:46:46.298Z,664.00
2023-02-09T21:47:46.367Z,661.00
2023-02-09T21:48:46.381Z,662.00
2023-02-09T21:49:46.410Z,664.00
2023-02-09T21:50:46.443Z,666.00
2023-02-09T21:51:46.479Z,666.00
2023-02-09T21:52:46.514Z,665.00
2023-02-09T21:53:46.547Z,664.00
2023-02-09T21:54:46.602Z,663.00
